Time;durP1;ratioP1;P1;durP2;ratioP2;P2;SDS_P1;SDS_P2;PMS_P1;PMS_P2;Temp;Humidity;BMP_temperature;BMP_pressure;BME280_temperature;BME280_humidity;BME280_pressure;Samples;Min_cycle;Max_cycle;Signal;HPM_P1;HPM_P2
2022/10/27 04:22:55;;;;;;;3.13;2.15;;;;;;;8.80;100.00;100967.00;5089117;28;20331;-65
2022/10/27 04:25:21;;;;;;;3.70;2.22;;;;;;;8.77;100.00;100969.97;5089268;28;20048;-65
2022/10/27 04:27:47;;;;;;;4.18;2.42;;;;;;;8.78;100.00;100968.97;5089031;28;20111;-65
2022/10/27 04:30:12;;;;;;;2.47;2.00;;;;;;;8.83;100.00;100966.72;5112825;22;20051;-69
2022/10/27 04:32:37;;;;;;;2.25;1.70;;;;;;;8.93;100.00;100963.06;5109282;28;20480;-69
2022/10/27 04:35:05;;;;;;;3.35;2.50;;;;;;;8.87;100.00;100955.69;5109277;28;20046;-70
2022/10/27 04:37:30;;;;;;;2.47;1.75;;;;;;;8.85;100.00;100954.13;5109129;28;20396;-69
2022/10/27 04:39:56;;;;;;;2.47;2.10;;;;;;;8.90;100.00;100952.72;5108931;28;20032;-69
2022/10/27 04:42:21;;;;;;;4.38;2.08;;;;;;;8.90;100.00;100949.22;5108812;28;20036;-70
2022/10/27 04:44:46;;;;;;;4.25;2.65;;;;;;;8.91;100.00;100954.41;5109091;28;20040;-69
2022/10/27 04:47:12;;;;;;;3.72;2.45;;;;;;;8.93;100.00;100957.75;5109032;28;20035;-69
2022/10/27 04:49:37;;;;;;;4.18;1.88;;;;;;;8.87;100.00;100961.00;5108834;28;20093;-70
2022/10/27 04:52:03;;;;;;;3.28;2.63;;;;;;;8.92;100.00;100952.56;5107332;28;20034;-69
2022/10/27 04:54:28;;;;;;;3.00;1.90;;;;;;;8.92;100.00;100953.41;5109143;28;20024;-69
2022/10/27 04:56:54;;;;;;;4.57;2.53;;;;;;;8.89;100.00;100951.06;5109275;28;20073;-70
2022/10/27 04:59:19;;;;;;;2.08;1.83;;;;;;;8.88;100.00;100954.69;5108730;28;20053;-69
2022/10/27 05:01:44;;;;;;;5.18;2.20;;;;;;;8.90;100.00;100957.19;5108412;28;20042;-69
2022/10/27 05:04:10;;;;;;;3.28;2.15;;;;;;;8.79;100.00;100955.53;5108613;28;20047;-64
2022/10/27 05:06:35;;;;;;;2.83;1.65;;;;;;;8.72;100.00;100962.41;5108502;28;20051;-63
2022/10/27 05:09:00;;;;;;;6.05;2.17;;;;;;;8.78;100.00;100971.63;5108522;28;20127;-61
2022/10/27 05:11:26;;;;;;;2.50;1.92;;;;;;;8.80;100.00;100970.53;5106886;28;20043;-62
2022/10/27 05:13:51;;;;;;;5.50;2.20;;;;;;;8.74;100.00;100970.25;5108435;28;20134;-63
2022/10/27 05:16:17;;;;;;;3.72;2.10;;;;;;;8.77;100.00;100980.59;5108399;28;20069;-67
2022/10/27 05:18:42;;;;;;;3.70;2.25;;;;;;;8.80;100.00;100978.50;5108363;28;20073;-70
2022/10/27 05:21:08;;;;;;;3.20;1.88;;;;;;;8.75;100.00;100986.06;5107756;28;20481;-71
2022/10/27 05:23:34;;;;;;;3.83;2.00;;;;;;;8.75;100.00;100986.06;5108199;28;20042;-69
2022/10/27 05:25:59;;;;;;;7.93;1.83;;;;;;;8.74;100.00;100980.84;5108157;28;20116;-68
2022/10/27 05:28:25;;;;;;;3.20;2.10;;;;;;;8.76;100.00;100982.41;5108090;28;20507;-68
2022/10/27 05:30:56;;;;;;;3.05;2.20;;;;;;;8.64;100.00;100983.56;5107723;28;20040;-68
2022/10/27 05:33:21;;;;;;;2.95;2.10;;;;;;;8.60;100.00;100985.63;5099671;28;20054;-67
2022/10/27 05:35:47;;;;;;;6.75;2.75;;;;;;;8.70;100.00;100980.31;5094438;28;20024;-68
2022/10/27 05:38:12;;;;;;;2.55;1.83;;;;;;;8.61;100.00;100990.00;5094386;28;20124;-69
2022/10/27 05:40:37;;;;;;;3.38;2.40;;;;;;;8.64;100.00;100983.56;5093954;28;20036;-67
2022/10/27 05:43:03;;;;;;;3.85;1.98;;;;;;;8.55;100.00;100979.94;5093191;28;20036;-68
2022/10/27 05:45:29;;;;;;;4.32;2.17;;;;;;;8.59;100.00;100972.50;5094334;28;20446;-68
2022/10/27 05:47:59;;;;;;;4.35;2.47;;;;;;;8.71;100.00;100974.03;5094145;28;20031;-67
2022/10/27 05:50:26;;;;;;;3.63;2.22;;;;;;;8.67;100.00;100975.28;5093679;28;20032;-68
2022/10/27 05:52:51;;;;;;;2.75;1.90;;;;;;;8.66;100.00;100970.97;5075921;28;20024;-68
2022/10/27 05:55:17;;;;;;;2.30;1.80;;;;;;;8.58;100.00;100965.53;5094175;28;20073;-69
2022/10/27 05:57:42;;;;;;;2.05;1.67;;;;;;;8.62;100.00;100969.59;5094044;28;20085;-67
2022/10/27 06:00:08;;;;;;;2.90;1.80;;;;;;;8.67;100.00;100969.97;5093808;28;20074;-64
2022/10/27 06:02:33;;;;;;;4.05;1.92;;;;;;;8.63;100.00;100966.78;5093815;28;20044;-63
2022/10/27 06:04:59;;;;;;;3.10;2.03;;;;;;;8.63;100.00;100963.28;5093880;28;20040;-64
2022/10/27 06:07:24;;;;;;;3.25;2.10;;;;;;;8.68;100.00;100953.91;5093857;28;20575;-64
2022/10/27 06:09:50;;;;;;;2.03;1.80;;;;;;;8.68;100.00;100964.53;5094209;28;20042;-65
2022/10/27 06:12:15;;;;;;;1.75;1.50;;;;;;;8.58;100.00;100958.41;5092293;28;20036;-65
2022/10/27 06:14:40;;;;;;;2.47;2.00;;;;;;;8.56;100.00;100959.53;5093580;28;20561;-65
2022/10/27 06:17:06;;;;;;;3.60;1.92;;;;;;;8.60;100.00;100968.88;5093571;28;20123;-63
2022/10/27 06:19:31;;;;;;;6.82;2.53;;;;;;;8.62;100.00;100981.06;5093446;28;20040;-62
2022/10/27 06:21:57;;;;;;;4.05;2.20;;;;;;;8.64;100.00;100968.47;5093099;28;20143;-62
2022/10/27 06:24:22;;;;;;;2.45;1.52;;;;;;;8.67;100.00;100972.63;5093499;28;20039;-62
2022/10/27 06:26:48;;;;;;;4.68;2.13;;;;;;;8.65;100.00;100975.44;5093854;28;20085;-62
2022/10/27 06:29:13;;;;;;;5.63;1.90;;;;;;;8.66;100.00;100982.41;5093275;28;20408;-63
2022/10/27 06:31:41;;;;;;;4.72;2.33;;;;;;;8.65;100.00;100991.38;5075126;28;20043;-63
2022/10/27 06:34:07;;;;;;;3.28;1.98;;;;;;;8.68;100.00;100990.28;5093327;28;20101;-63
2022/10/27 06:36:32;;;;;;;4.43;2.05;;;;;;;8.71;100.00;100995.28;5093540;28;20044;-58
2022/10/27 06:38:57;;;;;;;4.15;2.42;;;;;;;8.76;100.00;101008.97;5093282;28;20092;-62
2022/10/27 06:41:23;;;;;;;4.03;2.30;;;;;;;8.80;100.00;101015.69;5092885;28;20132;-63
2022/10/27 06:43:48;;;;;;;2.55;1.95;;;;;;;8.85;100.00;101017.91;5074931;28;20047;-63
2022/10/27 06:46:14;;;;;;;3.25;1.92;;;;;;;8.89;100.00;101024.63;5092363;28;20032;-62
2022/10/27 06:48:39;;;;;;;2.38;1.90;;;;;;;8.94;100.00;101031.19;5074812;28;20039;-63
2022/10/27 06:51:04;;;;;;;2.42;2.00;;;;;;;8.96;100.00;101031.84;5092547;28;20477;-62
2022/10/27 06:53:30;;;;;;;2.78;1.85;;;;;;;9.00;100.00;101035.09;5092934;28;20052;-63
2022/10/27 06:55:57;;;;;;;4.30;1.63;;;;;;;9.00;100.00;101039.53;5092867;28;20126;-63
2022/10/27 06:58:22;;;;;;;3.72;1.95;;;;;;;9.04;100.00;101043.59;5092783;28;20078;-63
2022/10/27 07:00:48;;;;;;;3.60;2.10;;;;;;;9.07;100.00;101048.63;5092411;28;20032;-62
2022/10/27 07:03:13;;;;;;;1.90;1.60;;;;;;;9.08;100.00;101048.47;5092716;28;20570;-63
2022/10/27 07:05:39;;;;;;;2.30;1.65;;;;;;;9.10;100.00;101043.00;5092693;28;20063;-63
2022/10/27 07:08:05;;;;;;;5.20;2.00;;;;;;;9.17;100.00;101049.44;5092635;28;20094;-62
2022/10/27 07:10:30;;;;;;;2.55;1.50;;;;;;;9.20;100.00;101047.34;5092107;28;20074;-61
2022/10/27 07:13:00;;;;;;;3.50;1.80;;;;;;;9.27;100.00;101047.59;5092532;28;20506;-63
2022/10/27 07:15:30;;;;;;;2.90;1.80;;;;;;;9.31;100.00;101051.63;5092412;28;20040;-62
2022/10/27 07:18:06;;;;;;;2.03;1.60;;;;;;;9.34;100.00;101051.34;5092370;28;20032;-62
2022/10/27 07:20:35;;;;;;;3.20;2.20;;;;;;;9.40;100.00;101045.44;5091879;28;20085;-61
2022/10/27 07:23:02;;;;;;;3.45;2.20;;;;;;;9.45;100.00;101053.81;5092355;28;20036;-62
2022/10/27 07:25:29;;;;;;;1.75;1.35;;;;;;;9.54;100.00;101053.91;5092304;28;20070;-62
2022/10/27 07:27:54;;;;;;;5.18;1.95;;;;;;;9.59;100.00;101059.66;5092309;28;20109;-63
2022/10/27 07:30:22;;;;;;;2.55;1.98;;;;;;;9.68;100.00;101054.25;5073446;28;20067;-63
2022/10/27 07:32:47;;;;;;;2.55;1.95;;;;;;;9.79;100.00;101063.88;5092189;28;20115;-62
2022/10/27 07:35:14;;;;;;;2.75;1.90;;;;;;;9.87;100.00;101063.13;5092144;28;20075;-62
2022/10/27 07:37:43;;;;;;;2.22;1.75;;;;;;;10.01;100.00;101071.44;5092104;28;20048;-63
2022/10/27 07:40:09;;;;;;;2.95;1.92;;;;;;;10.14;100.00;101067.59;5091931;28;20131;-63
2022/10/27 07:42:55;;;;;;;2.63;1.90;;;;;;;10.24;100.00;101071.91;5091875;28;20040;-63
2022/10/27 07:45:23;;;;;;;2.65;1.80;;;;;;;10.30;100.00;101073.09;5091982;28;20477;-63
2022/10/27 07:47:51;;;;;;;2.10;1.63;;;;;;;10.39;100.00;101072.19;5091847;28;20036;-63
2022/10/27 07:50:18;;;;;;;2.17;1.83;;;;;;;10.47;100.00;101072.25;5091496;28;20063;-63
2022/10/27 07:52:48;;;;;;;3.58;2.13;;;;;;;10.53;100.00;101070.81;5091810;28;20229;-63
2022/10/27 07:55:14;;;;;;;2.65;2.13;;;;;;;10.54;100.00;101062.66;5091734;28;20044;-63
2022/10/27 07:57:41;;;;;;;2.72;2.17;;;;;;;10.65;100.00;101069.59;5091702;28;20369;-63
2022/10/27 08:00:09;;;;;;;2.72;1.98;;;;;;;10.72;100.00;101075.16;5073414;28;20051;-63
2022/10/27 08:02:38;;;;;;;2.55;1.73;;;;;;;10.77;100.00;101076.38;5091762;28;20466;-63
2022/10/27 08:05:04;;;;;;;3.63;2.25;;;;;;;10.83;100.00;101078.41;5091918;28;20032;-63
2022/10/27 08:07:29;;;;;;;5.22;2.40;;;;;;;10.87;100.00;101079.75;5073643;28;20044;-62
2022/10/27 08:09:54;;;;;;;3.75;2.17;;;;;;;10.95;100.00;101075.47;5091355;28;20032;-62
2022/10/27 08:12:20;;;;;;;3.35;2.15;;;;;;;11.00;100.00;101074.03;5091425;28;20584;-62
2022/10/27 08:14:46;;;;;;;2.83;2.13;;;;;;;11.06;100.00;101070.75;5091442;28;20398;-63
2022/10/27 08:17:12;;;;;;;2.90;1.92;;;;;;;11.16;100.00;101077.81;5091520;28;20500;-62
2022/10/27 08:19:38;;;;;;;2.72;1.83;;;;;;;11.21;100.00;101080.81;5091378;28;20036;-60
2022/10/27 08:22:04;;;;;;;2.67;1.88;;;;;;;11.32;100.00;101085.91;5091104;28;20040;-61
2022/10/27 08:24:29;;;;;;;3.38;1.90;;;;;;;11.38;100.00;101078.09;5091458;28;20404;-62
2022/10/27 08:26:54;;;;;;;10.40;2.42;;;;;;;11.50;100.00;101077.84;5091328;28;20195;-63
2022/10/27 08:29:20;;;;;;;4.05;2.55;;;;;;;11.57;100.00;101085.03;5091234;28;20048;-63
2022/10/27 08:31:45;;;;;;;3.05;2.10;;;;;;;11.67;100.00;101087.56;5090992;28;20043;-63
2022/10/27 08:34:11;;;;;;;2.90;1.75;;;;;;;11.76;100.00;101085.81;5091446;28;20040;-62
2022/10/27 08:36:38;;;;;;;6.00;2.22;;;;;;;11.85;100.00;101088.34;5091335;28;20181;-63
2022/10/27 08:39:10;;;;;;;3.57;2.00;;;;;;;11.93;100.00;101082.22;5091079;28;20058;-63
2022/10/27 08:41:57;;;;;;;3.58;2.25;;;;;;;12.07;100.00;101083.44;5090639;28;20662;-62
2022/10/27 08:44:52;;;;;;;3.35;2.25;;;;;;;12.18;100.00;101075.94;5091171;28;20385;-63
2022/10/27 08:47:23;;;;;;;3.40;2.53;;;;;;;12.46;100.00;101076.50;5091088;28;20028;-63
2022/10/27 08:50:00;;;;;;;4.22;2.50;;;;;;;12.56;100.00;101080.84;5091057;28;20054;-63
2022/10/27 08:52:39;;;;;;;4.18;2.80;;;;;;;12.69;100.00;101081.19;5091009;28;20036;-63
2022/10/27 08:55:18;;;;;;;3.42;2.55;;;;;;;12.87;100.00;101081.88;5091232;28;20063;-62
2022/10/27 08:58:04;;;;;;;5.07;3.28;;;;;;;13.01;100.00;101083.03;5091183;28;20047;-63
2022/10/27 09:00:40;;;;;;;8.98;3.47;;;;;;;13.15;100.00;101074.31;5090852;28;20382;-63
2022/10/27 09:03:18;;;;;;;4.10;2.92;;;;;;;13.25;100.00;101079.50;5091188;28;20051;-63
2022/10/27 09:05:46;;;;;;;3.97;2.80;;;;;;;13.32;100.00;101069.78;5091211;28;20093;-63
2022/10/27 09:08:24;;;;;;;4.68;2.88;;;;;;;13.42;100.00;101075.78;5092230;28;20400;-62
2022/10/27 09:11:08;;;;;;;5.47;2.92;;;;;;;13.54;100.00;101078.91;5094518;28;20523;-62
2022/10/27 09:14:04;;;;;;;6.07;3.35;;;;;;;13.71;100.00;101079.72;5094825;28;20036;-63
2022/10/27 09:16:40;;;;;;;4.18;2.88;;;;;;;13.76;100.00;101078.19;5094675;28;20040;-61
2022/10/27 09:19:12;;;;;;;8.32;4.25;;;;;;;13.93;100.00;101095.00;5094645;28;20043;-62
2022/10/27 09:21:40;;;;;;;5.75;3.85;;;;;;;14.09;100.00;101086.06;5094312;28;20477;-62
2022/10/27 09:24:13;;;;;;;4.25;3.55;;;;;;;14.23;100.00;101089.84;5094704;28;20092;-60
2022/10/27 09:26:40;;;;;;;6.00;3.90;;;;;;;14.36;100.00;101088.25;5094467;28;20046;-63
2022/10/27 09:29:17;;;;;;;6.10;4.10;;;;;;;14.61;100.00;101088.94;5094341;28;20115;-61
2022/10/27 09:31:48;;;;;;;8.45;4.22;;;;;;;14.81;100.00;101088.44;5094319;28;20536;-62
2022/10/27 09:34:34;;;;;;;5.93;3.65;;;;;;;14.98;100.00;101089.97;5076338;28;20048;-61
2022/10/27 09:37:00;;;;;;;4.88;3.42;;;;;;;15.18;100.00;101083.06;5094394;28;20036;-60
2022/10/27 09:39:26;;;;;;;6.65;3.80;;;;;;;15.46;100.00;101077.91;5075950;28;20069;-64
2022/10/27 09:41:51;;;;;;;4.85;3.67;;;;;;;15.54;100.00;101081.53;5093790;28;20059;-63
2022/10/27 09:44:21;;;;;;;6.63;4.07;;;;;;;15.70;100.00;101079.50;5076090;28;20050;-63
2022/10/27 09:46:52;;;;;;;4.80;3.10;;;;;;;15.96;100.00;101079.00;5094102;28;20032;-62
2022/10/27 09:49:20;;;;;;;4.65;3.63;;;;;;;16.19;100.00;101078.03;5094857;28;20035;-62
2022/10/27 09:51:59;;;;;;;;;;;;;;;16.33;100.00;101084.38;5094168;28;20036;-62
2022/10/27 09:54:38;;;;;;;4.80;2.80;;;;;;;16.91;99.25;101071.72;5094164;28;19912;-62
2022/10/27 09:57:12;;;;;;;3.83;2.70;;;;;;;17.47;96.55;101074.38;5094101;28;20356;-59
2022/10/27 09:59:39;;;;;;;5.38;2.72;;;;;;;18.26;90.84;101065.84;5093734;28;20040;-60
2022/10/27 10:02:22;;;;;;;3.92;2.42;;;;;;;18.97;85.68;101066.97;5093243;28;20643;-62
2022/10/27 10:04:48;;;;;;;4.03;2.53;;;;;;;19.67;82.34;101072.66;5094292;28;20040;-62
2022/10/27 10:07:46;;;;;;;4.30;2.75;;;;;;;20.41;77.60;101075.84;5093903;28;20127;-61
2022/10/27 10:10:20;;;;;;;3.50;2.38;;;;;;;20.05;77.48;101074.59;5048535;28;20048;-63
2022/10/27 10:12:47;;;;;;;3.55;2.00;;;;;;;21.13;72.04;101067.19;5093636;28;20047;-64
2022/10/27 10:15:13;;;;;;;4.95;2.75;;;;;;;21.42;71.59;101074.88;5093694;28;20477;-62
2022/10/27 10:17:41;;;;;;;2.53;2.00;;;;;;;22.20;65.97;101064.13;5093671;28;20024;-63
2022/10/27 10:20:27;;;;;;;2.83;1.98;;;;;;;22.93;62.66;101066.56;5093216;28;20108;-64
2022/10/27 10:22:53;;;;;;;2.78;2.25;;;;;;;22.34;66.72;101064.75;5093432;28;20485;-61
2022/10/27 10:25:25;;;;;;;3.58;1.85;;;;;;;22.84;63.86;101069.84;5093500;28;20043;-62
2022/10/27 10:28:02;;;;;;;3.85;2.10;;;;;;;23.76;59.16;101067.34;5093747;28;20044;-60
2022/10/27 10:30:33;;;;;;;3.88;2.55;;;;;;;24.18;57.06;101067.06;5115760;22;20446;-63
2022/10/27 10:32:58;;;;;;;5.22;2.50;;;;;;;24.73;54.31;101071.91;5092329;28;20040;-63
2022/10/27 10:35:49;;;;;;;3.03;2.00;;;;;;;25.06;51.93;101065.66;5093527;28;20036;-63
2022/10/27 10:38:38;;;;;;;3.08;1.95;;;;;;;25.49;51.74;101051.25;5093549;28;20040;-62
2022/10/27 10:41:05;;;;;;;3.42;2.38;;;;;;;25.61;50.25;101048.41;5093124;28;20036;-61
2022/10/27 10:43:31;;;;;;;4.80;2.10;;;;;;;25.89;49.35;101045.53;5093387;28;20067;-62
2022/10/27 10:45:57;;;;;;;2.40;1.73;;;;;;;26.33;48.86;101047.31;5093440;28;20047;-64
2022/10/27 10:48:29;;;;;;;4.77;2.77;;;;;;;26.33;49.50;101041.88;5093319;28;20036;-64
2022/10/27 10:50:56;;;;;;;6.55;2.55;;;;;;;26.47;48.62;101048.56;5092813;28;20131;-64
2022/10/27 10:53:28;;;;;;;3.63;2.42;;;;;;;26.91;46.95;101041.00;5093333;28;20044;-65
2022/10/27 10:55:57;;;;;;;5.18;2.95;;;;;;;26.80;46.37;101036.59;5093301;28;20664;-64
2022/10/27 10:58:26;;;;;;;5.15;2.80;;;;;;;26.90;46.32;101038.56;5093216;28;20047;-65
2022/10/27 11:00:58;;;;;;;6.53;2.85;;;;;;;26.09;47.98;101036.75;5092789;28;20154;-64
2022/10/27 11:03:28;;;;;;;4.10;2.70;;;;;;;26.54;47.03;101021.91;5093036;28;20354;-64
2022/10/27 11:05:57;;;;;;;5.53;3.03;;;;;;;26.95;45.59;101024.94;5091817;28;20050;-63
2022/10/27 11:08:28;;;;;;;6.05;3.25;;;;;;;27.28;45.29;101016.41;5092969;28;20477;-64
2022/10/27 11:10:55;;;;;;;4.78;3.22;;;;;;;27.56;44.05;101009.69;5092998;28;20040;-64
2022/10/27 11:13:26;;;;;;;4.50;2.92;;;;;;;28.08;42.46;101021.63;5084203;28;20024;-64
2022/10/27 11:15:54;;;;;;;6.32;3.00;;;;;;;28.06;42.47;101007.41;5078516;28;20037;-64
2022/10/27 11:18:25;;;;;;;5.70;3.30;;;;;;;27.99;42.93;101007.66;5072882;28;20075;-64
2022/10/27 11:21:02;;;;;;;4.20;2.90;;;;;;;28.03;42.70;100999.72;5072538;28;20445;-64
2022/10/27 11:23:49;;;;;;;5.53;2.50;;;;;;;28.36;42.04;100999.25;5067778;28;20036;-65
2022/10/27 11:26:19;;;;;;;;;;;;;;;27.42;43.83;100983.09;5093021;28;20040;-65
2022/10/27 11:28:49;;;;;;;4.15;2.45;;;;;;;28.15;42.86;100975.63;5092540;28;19919;-64
2022/10/27 11:31:51;;;;;;;10.48;2.63;;;;;;;27.98;43.20;100981.38;5091441;28;20023;-63
2022/10/27 11:34:41;;;;;;;4.45;2.78;;;;;;;28.37;41.92;100973.50;5092348;28;20068;-64
2022/10/27 11:37:16;;;;;;;6.05;2.65;;;;;;;27.77;43.43;100974.19;5092238;28;20089;-63
2022/10/27 11:40:01;;;;;;;3.83;2.30;;;;;;;28.01;43.03;100975.34;5092421;28;20115;-64
2022/10/27 11:42:45;;;;;;;4.10;2.67;;;;;;;27.80;43.54;100963.53;5092056;28;20401;-64
2022/10/27 11:45:19;;;;;;;5.13;2.95;;;;;;;27.63;43.42;100964.81;5092265;28;20032;-63
2022/10/27 11:47:57;;;;;;;5.75;2.88;;;;;;;28.39;43.02;100967.72;5092291;28;20078;-64
2022/10/27 11:50:34;;;;;;;4.40;2.83;;;;;;;29.14;41.68;100955.00;5091711;28;20404;-64
2022/10/27 11:53:01;;;;;;;6.20;3.03;;;;;;;28.50;42.51;100961.16;5092154;28;20039;-64
2022/10/27 11:56:05;;;;;;;8.02;3.33;;;;;;;28.73;41.66;100953.44;5092116;28;20606;-65
2022/10/27 11:58:45;;;;;;;6.53;2.70;;;;;;;29.51;39.34;100952.91;5092006;28;20032;-63
2022/10/27 12:01:19;;;;;;;4.70;2.80;;;;;;;29.23;40.17;100955.25;5091528;28;20473;-65
2022/10/27 12:04:15;;;;;;;5.75;2.90;;;;;;;29.79;38.84;100952.22;5091939;28;20039;-64
2022/10/27 12:06:51;;;;;;;10.85;3.20;;;;;;;29.30;39.26;100955.78;5091987;28;20511;-65
2022/10/27 12:09:30;;;;;;;6.07;2.30;;;;;;;29.14;40.60;100941.28;5091876;28;20461;-65
2022/10/27 12:12:27;;;;;;;5.45;2.58;;;;;;;28.11;42.68;100945.25;5091520;28;20615;-65
2022/10/27 12:14:58;;;;;;;7.13;2.65;;;;;;;27.18;43.74;100941.69;5091814;28;20032;-64
2022/10/27 12:17:40;;;;;;;7.30;2.75;;;;;;;27.39;44.00;100946.16;5094537;28;20088;-65
2022/10/27 12:20:12;;;;;;;8.85;3.03;;;;;;;27.43;44.31;100936.31;5095221;28;20127;-66
2022/10/27 12:22:44;;;;;;;7.65;3.10;;;;;;;27.86;43.05;100934.28;5079327;28;20057;-65
2022/10/27 12:25:19;;;;;;;7.70;3.13;;;;;;;27.68;43.13;100935.59;5071650;28;20400;-65
2022/10/27 12:27:47;;;;;;;7.50;2.85;;;;;;;27.05;45.18;100924.69;5071604;28;20112;-64
2022/10/27 12:30:21;;;;;;;6.65;3.13;;;;;;;27.19;44.53;100925.03;5070911;28;20060;-65
2022/10/27 12:33:21;;;;;;;4.95;2.88;;;;;;;26.71;45.41;100924.19;5071357;28;20032;-66
2022/10/27 12:35:56;;;;;;;6.18;2.80;;;;;;;26.98;45.19;100917.78;5071405;28;20056;-66
2022/10/27 12:38:42;;;;;;;7.50;3.20;;;;;;;26.40;46.08;100917.69;5071476;28;20036;-63
2022/10/27 12:41:30;;;;;;;10.32;3.00;;;;;;;24.94;49.65;100918.56;5070954;28;20040;-65
2022/10/27 12:44:04;;;;;;;4.35;2.72;;;;;;;25.77;48.94;100913.88;5073931;28;20033;-63
2022/10/27 12:46:55;;;;;;;7.57;2.80;;;;;;;25.88;47.51;100910.13;5075316;28;20025;-63
2022/10/27 12:49:41;;;;;;;6.50;3.00;;;;;;;25.12;49.78;100912.84;5075057;28;20029;-65
2022/10/27 12:52:17;;;;;;;5.13;2.80;;;;;;;25.10;50.90;100904.13;5074923;28;20135;-65
2022/10/27 12:55:00;;;;;;;9.48;3.00;;;;;;;25.09;50.65;100910.63;5075221;28;20484;-65
2022/10/27 12:57:56;;;;;;;8.88;3.15;;;;;;;25.01;52.09;100908.31;5075106;28;20731;-64
2022/10/27 13:00:23;;;;;;;7.30;3.00;;;;;;;24.75;52.40;100903.59;5074740;28;20054;-64
2022/10/27 13:03:07;;;;;;;;;;;;;;;24.77;51.84;100902.25;5075369;28;20024;-64
2022/10/27 13:06:06;;;;;;;8.45;2.65;;;;;;;24.66;54.01;100902.38;5074911;28;19912;-64
2022/10/27 13:08:46;;;;;;;8.85;3.00;;;;;;;24.64;54.03;100891.72;5033465;28;20044;-64
2022/10/27 13:11:30;;;;;;;5.50;3.05;;;;;;;24.33;55.62;100907.63;5074441;28;20067;-64
2022/10/27 13:14:37;;;;;;;6.18;2.65;;;;;;;24.34;57.90;100894.84;5074804;28;20043;-65
2022/10/27 13:17:06;;;;;;;8.27;2.72;;;;;;;24.14;56.12;100891.75;5063858;28;20060;-64
2022/10/27 13:19:45;;;;;;;5.95;3.10;;;;;;;23.75;57.62;100891.66;5074616;28;20082;-64
2022/10/27 13:22:27;;;;;;;7.25;3.28;;;;;;;23.91;57.18;100890.00;5074390;28;20036;-65
2022/10/27 13:25:05;;;;;;;6.97;3.33;;;;;;;23.76;56.82;100883.22;5074564;28;20040;-64
2022/10/27 13:27:37;;;;;;;8.40;3.13;;;;;;;23.23;59.00;100889.00;5074740;28;20443;-64
2022/10/27 13:30:05;;;;;;;7.68;2.78;;;;;;;23.11;60.38;100893.63;5074183;28;20044;-64
2022/10/27 13:32:46;;;;;;;5.55;3.30;;;;;;;23.43;59.53;100885.84;5074278;28;20028;-64
2022/10/27 13:35:11;;;;;;;6.05;2.90;;;;;;;23.37;59.03;100884.09;5074328;28;20051;-64
2022/10/27 13:38:09;;;;;;;6.88;2.95;;;;;;;23.38;60.43;100885.75;5074323;28;20032;-64
2022/10/27 13:40:36;;;;;;;8.05;2.92;;;;;;;23.38;61.65;100881.13;5042651;28;20056;-64
2022/10/27 13:43:20;;;;;;;;;;;;;;;23.34;61.29;100890.00;5040033;28;20055;-65
2022/10/27 13:45:51;;;;;;;7.80;3.33;;;;;;;23.14;61.33;100880.38;5074165;28;19916;-65
2022/10/27 13:48:16;;;;;;;5.55;3.22;;;;;;;23.18;62.71;100878.84;5074113;28;20485;-64
2022/10/27 13:50:46;;;;;;;5.55;2.88;;;;;;;23.11;61.37;100877.34;5073588;28;20062;-65
2022/10/27 13:53:14;;;;;;;3.92;2.85;;;;;;;23.00;62.46;100887.97;5055976;28;20062;-64
2022/10/27 13:55:46;;;;;;;6.13;2.72;;;;;;;23.20;62.13;100887.56;5073638;28;20032;-65
2022/10/27 13:58:20;;;;;;;6.72;3.10;;;;;;;23.19;61.45;100882.38;5073878;28;20036;-64
2022/10/27 14:01:15;;;;;;;6.80;3.17;;;;;;;23.23;63.00;100867.25;5073461;28;20044;-64
2022/10/27 14:03:56;;;;;;;6.50;3.00;;;;;;;23.33;61.25;100870.16;5073909;28;20440;-64
2022/10/27 14:06:30;;;;;;;7.57;3.88;;;;;;;23.12;61.52;100868.09;5074000;28;20757;-64
2022/10/27 14:08:59;;;;;;;5.45;3.03;;;;;;;22.76;63.10;100861.91;5073964;28;20114;-64
2022/10/27 14:11:30;;;;;;;10.55;2.95;;;;;;;22.72;64.37;100868.88;5073395;28;20556;-64
2022/10/27 14:14:01;;;;;;;9.23;3.25;;;;;;;22.84;66.22;100863.44;5073704;28;20493;-64
2022/10/27 14:16:33;;;;;;;6.32;3.47;;;;;;;22.64;64.78;100867.34;5073716;28;20109;-64
2022/10/27 14:19:01;;;;;;;7.90;3.47;;;;;;;22.70;64.54;100857.44;5073811;28;20062;-64
2022/10/27 14:21:29;;;;;;;5.18;3.15;;;;;;;22.73;66.25;100857.78;5073192;28;20385;-65
2022/10/27 14:24:02;;;;;;;7.50;3.15;;;;;;;22.78;66.26;100859.78;5073576;28;20033;-64
2022/10/27 14:26:32;;;;;;;7.78;3.00;;;;;;;22.78;65.83;100862.50;5073596;28;20055;-64
2022/10/27 14:28:57;;;;;;;5.05;3.08;;;;;;;22.71;65.32;100859.09;5055580;28;20040;-64
2022/10/27 14:31:23;;;;;;;5.43;3.28;;;;;;;22.62;66.08;100866.75;5072857;28;20405;-64
2022/10/27 14:33:50;;;;;;;6.07;3.00;;;;;;;22.64;68.27;100863.81;5073559;28;20562;-64
2022/10/27 14:36:23;;;;;;;8.60;3.25;;;;;;;22.50;66.79;100859.72;5073332;28;20060;-64
2022/10/27 14:38:56;;;;;;;6.80;3.33;;;;;;;22.48;67.92;100851.78;5073134;28;20036;-64
2022/10/27 14:41:29;;;;;;;6.93;3.63;;;;;;;22.51;68.81;100862.19;5072702;28;20036;-64
2022/10/27 14:43:58;;;;;;;9.25;3.33;;;;;;;22.39;68.90;100856.75;5073004;28;20118;-64
2022/10/27 14:46:27;;;;;;;9.82;4.93;;;;;;;;;;5072928;28;20040;-64
2022/10/27 14:48:59;;;;;;;8.18;3.85;;;;;;;22.31;72.72;100865.25;5073017;28;20028;-64
2022/10/27 14:51:27;;;;;;;8.32;3.30;;;;;;;22.29;73.04;100861.94;5072548;28;20500;-63
2022/10/27 14:53:55;;;;;;;8.45;3.88;;;;;;;22.21;71.38;100865.00;5072902;28;20025;-64
2022/10/27 14:56:26;;;;;;;5.97;2.95;;;;;;;22.21;70.96;100859.56;5072647;28;20032;-64
2022/10/27 14:58:59;;;;;;;8.65;3.63;;;;;;;22.13;71.68;100858.03;5072810;28;20036;-64
2022/10/27 15:01:32;;;;;;;6.65;3.28;;;;;;;22.15;71.90;100855.09;5072178;28;20037;-64
2022/10/27 15:03:58;;;;;;;9.95;4.00;;;;;;;22.07;73.75;100847.28;5054735;28;20052;-64
2022/10/27 15:06:32;;;;;;;8.70;3.85;;;;;;;22.04;73.37;100855.84;5071718;28;20040;-64
2022/10/27 15:08:58;;;;;;;10.88;4.35;;;;;;;22.03;72.60;100857.75;5072534;28;20066;-64
2022/10/27 15:11:25;;;;;;;6.63;3.03;;;;;;;21.94;75.06;100859.97;5072047;28;20115;-62
2022/10/27 15:13:54;;;;;;;;;;;;;;;21.91;74.13;100865.88;5073035;28;20403;-64
2022/10/27 15:16:33;;;;;;;11.10;3.17;;;;;;;21.88;74.14;100865.50;5072675;28;19955;-64
2022/10/27 15:18:58;;;;;;;6.55;2.95;;;;;;;21.81;73.12;100852.06;5073379;28;20051;-64
2022/10/27 15:21:26;;;;;;;4.50;3.13;;;;;;;21.81;72.35;100843.09;5071808;28;20391;-64
2022/10/27 15:23:58;;;;;;;;;;;;;;;21.79;73.22;100847.94;5054679;28;20419;-64
2022/10/27 15:26:25;;;;;;;10.48;3.50;;;;;;;21.68;73.74;100846.84;5054322;28;19912;-64
2022/10/27 15:28:52;;;;;;;10.38;3.67;;;;;;;21.61;75.79;100852.38;5072109;28;20036;-64
2022/10/27 15:31:18;;;;;;;6.27;3.30;;;;;;;21.56;78.20;100856.81;5071589;28;20048;-64
2022/10/27 15:33:46;;;;;;;5.10;2.83;;;;;;;21.50;80.08;100855.03;5072092;28;20436;-65
2022/10/27 15:36:14;;;;;;;4.13;2.75;;;;;;;21.45;80.69;100858.41;5071941;28;20052;-61
2022/10/27 15:38:40;;;;;;;7.75;3.40;;;;;;;21.18;81.59;100854.41;5071701;28;20163;-61
2022/10/27 15:41:24;;;;;;;7.15;3.75;;;;;;;21.08;82.40;100847.66;5053273;28;20040;-61
2022/10/27 15:44:25;;;;;;;6.22;3.45;;;;;;;21.08;82.97;100857.66;5071876;28;20040;-60
2022/10/27 15:46:50;;;;;;;7.57;4.05;;;;;;;20.79;85.97;100857.34;5066102;28;20060;-60
2022/10/27 15:49:27;;;;;;;5.80;3.28;;;;;;;20.75;87.06;100858.88;5071758;28;20417;-61
2022/10/27 15:52:06;;;;;;;6.72;4.13;;;;;;;20.53;88.96;100863.06;5053788;28;20056;-61
2022/10/27 15:54:33;;;;;;;10.27;3.88;;;;;;;20.32;90.87;100861.56;5071899;28;20032;-61
2022/10/27 15:57:01;;;;;;;6.50;3.40;;;;;;;20.19;91.43;100862.50;5071873;28;20032;-62
2022/10/27 15:59:28;;;;;;;9.00;3.38;;;;;;;20.10;91.18;100861.16;5071734;28;20083;-61
2022/10/27 16:02:04;;;;;;;6.75;3.55;;;;;;;19.97;91.60;100862.09;5071273;28;20041;-61
2022/10/27 16:04:33;;;;;;;8.18;3.17;;;;;;;19.74;92.76;100865.34;5071639;28;20060;-61
2022/10/27 16:07:11;;;;;;;9.68;3.17;;;;;;;19.57;94.76;100869.63;5071709;28;20079;-61